sensor_id;sensor_type;location;lat;lon;timestamp;P1;durP1;ratioP1;P2;durP2;ratioP2
6288;SDS011;3177;49.880;8.836;2023-04-03T00:02:26;4.03;;;3.13;;
6288;SDS011;3177;49.880;8.836;2023-04-03T00:04:53;3.30;;;3.00;;
6288;SDS011;3177;49.880;8.836;2023-04-03T00:07:21;3.83;;;3.53;;
6288;SDS011;3177;49.880;8.836;2023-04-03T00:09:48;3.60;;;3.30;;
6288;SDS011;3177;49.880;8.836;2023-04-03T00:12:15;3.53;;;3.23;;
6288;SDS011;3177;49.880;8.836;2023-04-03T00:14:42;4.10;;;3.23;;
6288;SDS011;3177;49.880;8.836;2023-04-03T00:17:09;3.70;;;3.50;;
6288;SDS011;3177;49.880;8.836;2023-04-03T00:19:36;4.40;;;3.40;;
6288;SDS011;3177;49.880;8.836;2023-04-03T00:22:03;4.43;;;3.40;;
6288;SDS011;3177;49.880;8.836;2023-04-03T00:24:32;4.00;;;3.70;;
6288;SDS011;3177;49.880;8.836;2023-04-03T00:26:59;4.57;;;3.37;;
6288;SDS011;3177;49.880;8.836;2023-04-03T00:29:26;4.30;;;3.90;;
6288;SDS011;3177;49.880;8.836;2023-04-03T00:31:53;3.97;;;3.67;;
6288;SDS011;3177;49.880;8.836;2023-04-03T00:34:20;4.13;;;3.30;;
6288;SDS011;3177;49.880;8.836;2023-04-03T00:36:48;3.63;;;3.33;;
6288;SDS011;3177;49.880;8.836;2023-04-03T00:39:16;5.03;;;3.50;;
6288;SDS011;3177;49.880;8.836;2023-04-03T00:41:44;4.50;;;3.07;;
6288;SDS011;3177;49.880;8.836;2023-04-03T00:44:21;4.03;;;3.67;;
6288;SDS011;3177;49.880;8.836;2023-04-03T00:46:49;4.60;;;3.67;;
6288;SDS011;3177;49.880;8.836;2023-04-03T00:49:16;4.43;;;3.43;;
6288;SDS011;3177;49.880;8.836;2023-04-03T00:51:43;3.33;;;3.03;;
6288;SDS011;3177;49.880;8.836;2023-04-03T00:54:10;3.60;;;3.33;;
6288;SDS011;3177;49.880;8.836;2023-04-03T00:56:38;4.10;;;3.57;;
6288;SDS011;3177;49.880;8.836;2023-04-03T00:59:08;3.60;;;3.30;;
6288;SDS011;3177;49.880;8.836;2023-04-03T01:01:36;3.73;;;3.43;;
6288;SDS011;3177;49.880;8.836;2023-04-03T01:04:04;6.77;;;3.50;;
6288;SDS011;3177;49.880;8.836;2023-04-03T01:06:36;3.80;;;3.43;;
6288;SDS011;3177;49.880;8.836;2023-04-03T01:09:04;4.60;;;3.60;;
6288;SDS011;3177;49.880;8.836;2023-04-03T01:11:31;6.53;;;3.80;;
6288;SDS011;3177;49.880;8.836;2023-04-03T01:13:58;3.80;;;3.50;;
6288;SDS011;3177;49.880;8.836;2023-04-03T01:16:28;4.00;;;3.70;;
6288;SDS011;3177;49.880;8.836;2023-04-03T01:18:56;7.83;;;3.77;;
6288;SDS011;3177;49.880;8.836;2023-04-03T01:21:34;3.73;;;3.40;;
6288;SDS011;3177;49.880;8.836;2023-04-03T01:24:07;4.67;;;3.47;;
6288;SDS011;3177;49.880;8.836;2023-04-03T01:26:36;4.00;;;3.60;;
6288;SDS011;3177;49.880;8.836;2023-04-03T01:29:03;3.60;;;3.40;;
6288;SDS011;3177;49.880;8.836;2023-04-03T01:34:01;4.23;;;3.50;;
6288;SDS011;3177;49.880;8.836;2023-04-03T01:36:29;3.90;;;3.50;;
6288;SDS011;3177;49.880;8.836;2023-04-03T01:38:56;3.90;;;3.50;;
6288;SDS011;3177;49.880;8.836;2023-04-03T01:41:24;4.23;;;3.83;;
6288;SDS011;3177;49.880;8.836;2023-04-03T01:43:52;4.27;;;3.90;;
6288;SDS011;3177;49.880;8.836;2023-04-03T01:46:19;4.83;;;3.57;;
6288;SDS011;3177;49.880;8.836;2023-04-03T01:48:46;3.70;;;3.40;;
6288;SDS011;3177;49.880;8.836;2023-04-03T01:51:15;3.63;;;3.40;;
6288;SDS011;3177;49.880;8.836;2023-04-03T01:53:42;9.10;;;4.50;;
6288;SDS011;3177;49.880;8.836;2023-04-03T01:56:09;4.20;;;3.80;;
6288;SDS011;3177;49.880;8.836;2023-04-03T01:58:36;3.80;;;3.50;;
6288;SDS011;3177;49.880;8.836;2023-04-03T02:01:03;5.63;;;3.83;;
6288;SDS011;3177;49.880;8.836;2023-04-03T02:03:31;4.30;;;3.40;;
6288;SDS011;3177;49.880;8.836;2023-04-03T02:05:58;3.97;;;3.57;;
6288;SDS011;3177;49.880;8.836;2023-04-03T02:08:26;4.67;;;4.10;;
6288;SDS011;3177;49.880;8.836;2023-04-03T02:10:53;5.13;;;4.13;;
6288;SDS011;3177;49.880;8.836;2023-04-03T02:13:20;4.17;;;3.60;;
6288;SDS011;3177;49.880;8.836;2023-04-03T02:15:49;4.67;;;3.67;;
6288;SDS011;3177;49.880;8.836;2023-04-03T02:18:16;4.27;;;3.87;;
6288;SDS011;3177;49.880;8.836;2023-04-03T02:20:43;6.27;;;3.77;;
6288;SDS011;3177;49.880;8.836;2023-04-03T02:23:10;4.80;;;3.83;;
6288;SDS011;3177;49.880;8.836;2023-04-03T02:25:39;3.80;;;3.50;;
6288;SDS011;3177;49.880;8.836;2023-04-03T02:28:06;4.00;;;3.53;;
6288;SDS011;3177;49.880;8.836;2023-04-03T02:30:33;3.90;;;3.60;;
6288;SDS011;3177;49.880;8.836;2023-04-03T02:33:00;4.07;;;3.77;;
6288;SDS011;3177;49.880;8.836;2023-04-03T02:35:27;4.00;;;3.70;;
6288;SDS011;3177;49.880;8.836;2023-04-03T02:37:54;4.03;;;3.63;;
6288;SDS011;3177;49.880;8.836;2023-04-03T02:40:21;4.17;;;3.87;;
6288;SDS011;3177;49.880;8.836;2023-04-03T02:42:49;4.30;;;3.93;;
6288;SDS011;3177;49.880;8.836;2023-04-03T02:45:16;3.37;;;3.07;;
6288;SDS011;3177;49.880;8.836;2023-04-03T02:47:43;4.00;;;3.70;;
6288;SDS011;3177;49.880;8.836;2023-04-03T02:50:10;5.43;;;3.47;;
6288;SDS011;3177;49.880;8.836;2023-04-03T02:52:37;4.23;;;3.77;;
6288;SDS011;3177;49.880;8.836;2023-04-03T02:55:05;4.50;;;4.10;;
6288;SDS011;3177;49.880;8.836;2023-04-03T02:57:32;4.37;;;3.80;;
6288;SDS011;3177;49.880;8.836;2023-04-03T03:00:01;4.23;;;3.87;;
6288;SDS011;3177;49.880;8.836;2023-04-03T03:02:28;6.10;;;3.60;;
6288;SDS011;3177;49.880;8.836;2023-04-03T03:04:55;4.00;;;3.60;;
6288;SDS011;3177;49.880;8.836;2023-04-03T03:07:22;3.97;;;3.67;;
6288;SDS011;3177;49.880;8.836;2023-04-03T03:09:49;4.03;;;3.73;;
6288;SDS011;3177;49.880;8.836;2023-04-03T03:12:16;4.37;;;3.97;;
6288;SDS011;3177;49.880;8.836;2023-04-03T03:14:46;3.90;;;3.60;;
6288;SDS011;3177;49.880;8.836;2023-04-03T03:17:14;4.40;;;4.00;;
6288;SDS011;3177;49.880;8.836;2023-04-03T03:19:41;4.20;;;3.90;;
6288;SDS011;3177;49.880;8.836;2023-04-03T03:22:09;6.00;;;4.00;;
6288;SDS011;3177;49.880;8.836;2023-04-03T03:24:36;4.13;;;3.83;;
6288;SDS011;3177;49.880;8.836;2023-04-03T03:27:03;5.37;;;3.90;;
6288;SDS011;3177;49.880;8.836;2023-04-03T03:29:30;5.87;;;3.83;;
6288;SDS011;3177;49.880;8.836;2023-04-03T03:31:57;4.37;;;3.93;;
6288;SDS011;3177;49.880;8.836;2023-04-03T03:34:26;5.73;;;4.13;;
6288;SDS011;3177;49.880;8.836;2023-04-03T03:36:53;4.30;;;4.00;;
6288;SDS011;3177;49.880;8.836;2023-04-03T03:39:20;6.30;;;4.50;;
6288;SDS011;3177;49.880;8.836;2023-04-03T03:41:47;6.10;;;5.00;;
6288;SDS011;3177;49.880;8.836;2023-04-03T03:44:14;4.30;;;3.90;;
6288;SDS011;3177;49.880;8.836;2023-04-03T03:46:41;4.60;;;4.20;;
6288;SDS011;3177;49.880;8.836;2023-04-03T03:49:08;8.03;;;4.60;;
6288;SDS011;3177;49.880;8.836;2023-04-03T03:51:37;4.50;;;4.10;;
6288;SDS011;3177;49.880;8.836;2023-04-03T03:54:04;4.47;;;4.07;;
6288;SDS011;3177;49.880;8.836;2023-04-03T03:56:32;4.30;;;3.90;;
6288;SDS011;3177;49.880;8.836;2023-04-03T03:58:59;4.27;;;3.97;;
6288;SDS011;3177;49.880;8.836;2023-04-03T04:01:26;4.57;;;4.17;;
6288;SDS011;3177;49.880;8.836;2023-04-03T04:03:53;4.10;;;3.80;;
6288;SDS011;3177;49.880;8.836;2023-04-03T04:06:20;4.57;;;4.10;;
6288;SDS011;3177;49.880;8.836;2023-04-03T04:08:49;5.70;;;4.33;;
6288;SDS011;3177;49.880;8.836;2023-04-03T04:11:16;7.53;;;3.53;;
6288;SDS011;3177;49.880;8.836;2023-04-03T04:13:43;3.97;;;3.63;;
6288;SDS011;3177;49.880;8.836;2023-04-03T04:16:11;4.37;;;3.63;;
6288;SDS011;3177;49.880;8.836;2023-04-03T04:18:38;4.57;;;3.67;;
6288;SDS011;3177;49.880;8.836;2023-04-03T04:21:05;5.97;;;3.10;;
6288;SDS011;3177;49.880;8.836;2023-04-03T04:23:32;3.53;;;3.20;;
6288;SDS011;3177;49.880;8.836;2023-04-03T04:26:00;5.17;;;3.37;;
6288;SDS011;3177;49.880;8.836;2023-04-03T04:28:27;3.80;;;3.43;;
6288;SDS011;3177;49.880;8.836;2023-04-03T04:30:54;6.07;;;3.57;;
6288;SDS011;3177;49.880;8.836;2023-04-03T04:33:21;5.33;;;3.20;;
6288;SDS011;3177;49.880;8.836;2023-04-03T04:35:48;5.00;;;3.03;;
6288;SDS011;3177;49.880;8.836;2023-04-03T04:38:16;5.60;;;3.20;;
6288;SDS011;3177;49.880;8.836;2023-04-03T04:40:43;6.07;;;3.53;;
6288;SDS011;3177;49.880;8.836;2023-04-03T04:43:12;3.47;;;3.17;;
6288;SDS011;3177;49.880;8.836;2023-04-03T04:45:39;5.27;;;3.00;;
6288;SDS011;3177;49.880;8.836;2023-04-03T04:48:06;5.93;;;3.23;;
6288;SDS011;3177;49.880;8.836;2023-04-03T04:50:33;4.23;;;2.93;;
6288;SDS011;3177;49.880;8.836;2023-04-03T04:53:00;4.80;;;3.07;;
6288;SDS011;3177;49.880;8.836;2023-04-03T04:55:27;6.93;;;3.23;;
6288;SDS011;3177;49.880;8.836;2023-04-03T04:57:54;4.23;;;3.20;;
6288;SDS011;3177;49.880;8.836;2023-04-03T05:00:23;3.27;;;2.83;;
6288;SDS011;3177;49.880;8.836;2023-04-03T05:02:50;5.03;;;3.03;;
6288;SDS011;3177;49.880;8.836;2023-04-03T05:05:17;4.57;;;3.00;;
6288;SDS011;3177;49.880;8.836;2023-04-03T05:07:44;4.87;;;3.10;;
6288;SDS011;3177;49.880;8.836;2023-04-03T05:10:11;3.73;;;3.23;;
6288;SDS011;3177;49.880;8.836;2023-04-03T05:12:39;4.53;;;2.90;;
6288;SDS011;3177;49.880;8.836;2023-04-03T05:15:06;6.07;;;2.80;;
6288;SDS011;3177;49.880;8.836;2023-04-03T05:17:35;3.13;;;2.93;;
6288;SDS011;3177;49.880;8.836;2023-04-03T05:20:02;3.50;;;3.03;;
6288;SDS011;3177;49.880;8.836;2023-04-03T05:22:30;4.70;;;2.60;;
6288;SDS011;3177;49.880;8.836;2023-04-03T05:24:57;7.13;;;2.87;;
6288;SDS011;3177;49.880;8.836;2023-04-03T05:27:24;3.87;;;2.90;;
6288;SDS011;3177;49.880;8.836;2023-04-03T05:29:53;4.13;;;2.90;;
6288;SDS011;3177;49.880;8.836;2023-04-03T05:32:20;3.30;;;2.80;;
6288;SDS011;3177;49.880;8.836;2023-04-03T05:34:48;7.07;;;3.77;;
6288;SDS011;3177;49.880;8.836;2023-04-03T05:37:15;3.10;;;2.90;;
6288;SDS011;3177;49.880;8.836;2023-04-03T05:39:43;5.93;;;3.10;;
6288;SDS011;3177;49.880;8.836;2023-04-03T05:42:10;6.70;;;3.07;;
6288;SDS011;3177;49.880;8.836;2023-04-03T05:44:37;3.57;;;3.20;;
6288;SDS011;3177;49.880;8.836;2023-04-03T05:47:06;4.73;;;3.17;;
6288;SDS011;3177;49.880;8.836;2023-04-03T05:49:33;3.67;;;2.97;;
6288;SDS011;3177;49.880;8.836;2023-04-03T05:54:39;4.47;;;3.27;;
6288;SDS011;3177;49.880;8.836;2023-04-03T05:57:21;3.97;;;3.07;;
6288;SDS011;3177;49.880;8.836;2023-04-03T05:59:48;4.57;;;3.07;;
6288;SDS011;3177;49.880;8.836;2023-04-03T06:02:16;5.43;;;3.27;;
6288;SDS011;3177;49.880;8.836;2023-04-03T06:04:44;4.67;;;2.77;;
6288;SDS011;3177;49.880;8.836;2023-04-03T06:07:11;3.73;;;3.00;;
6288;SDS011;3177;49.880;8.836;2023-04-03T06:09:40;3.10;;;2.80;;
6288;SDS011;3177;49.880;8.836;2023-04-03T06:12:07;5.77;;;3.17;;
6288;SDS011;3177;49.880;8.836;2023-04-03T06:14:34;4.80;;;3.13;;
6288;SDS011;3177;49.880;8.836;2023-04-03T06:17:01;3.80;;;2.70;;
6288;SDS011;3177;49.880;8.836;2023-04-03T06:19:29;5.10;;;2.77;;
6288;SDS011;3177;49.880;8.836;2023-04-03T06:21:56;3.90;;;3.07;;
6288;SDS011;3177;49.880;8.836;2023-04-03T06:24:24;3.17;;;2.57;;
6288;SDS011;3177;49.880;8.836;2023-04-03T06:26:52;3.00;;;2.80;;
6288;SDS011;3177;49.880;8.836;2023-04-03T06:29:19;3.63;;;2.80;;
6288;SDS011;3177;49.880;8.836;2023-04-03T06:31:46;8.57;;;2.80;;
6288;SDS011;3177;49.880;8.836;2023-04-03T06:34:14;3.27;;;2.67;;
6288;SDS011;3177;49.880;8.836;2023-04-03T06:36:54;4.37;;;3.30;;
6288;SDS011;3177;49.880;8.836;2023-04-03T06:39:25;4.20;;;2.97;;
6288;SDS011;3177;49.880;8.836;2023-04-03T06:41:53;3.50;;;3.00;;
6288;SDS011;3177;49.880;8.836;2023-04-03T06:44:20;3.73;;;2.73;;
6288;SDS011;3177;49.880;8.836;2023-04-03T06:46:48;4.87;;;2.93;;
6288;SDS011;3177;49.880;8.836;2023-04-03T06:49:16;4.90;;;3.30;;
6288;SDS011;3177;49.880;8.836;2023-04-03T06:51:43;3.20;;;2.60;;
6288;SDS011;3177;49.880;8.836;2023-04-03T06:54:11;3.30;;;3.00;;
6288;SDS011;3177;49.880;8.836;2023-04-03T06:56:38;4.10;;;2.63;;
6288;SDS011;3177;49.880;8.836;2023-04-03T06:59:06;3.10;;;2.90;;
6288;SDS011;3177;49.880;8.836;2023-04-03T07:01:33;5.13;;;2.70;;
6288;SDS011;3177;49.880;8.836;2023-04-03T07:04:00;9.53;;;2.70;;
6288;SDS011;3177;49.880;8.836;2023-04-03T07:06:27;5.37;;;2.70;;
6288;SDS011;3177;49.880;8.836;2023-04-03T07:08:56;2.60;;;2.40;;
6288;SDS011;3177;49.880;8.836;2023-04-03T07:11:23;3.60;;;2.93;;
6288;SDS011;3177;49.880;8.836;2023-04-03T07:13:51;4.50;;;2.80;;
6288;SDS011;3177;49.880;8.836;2023-04-03T07:16:27;5.93;;;2.80;;
6288;SDS011;3177;49.880;8.836;2023-04-03T07:18:55;3.13;;;2.60;;
6288;SDS011;3177;49.880;8.836;2023-04-03T07:21:22;5.37;;;3.20;;
6288;SDS011;3177;49.880;8.836;2023-04-03T07:23:49;5.43;;;2.63;;
6288;SDS011;3177;49.880;8.836;2023-04-03T07:26:16;3.07;;;2.67;;
6288;SDS011;3177;49.880;8.836;2023-04-03T07:28:45;2.77;;;2.40;;
6288;SDS011;3177;49.880;8.836;2023-04-03T07:31:21;2.70;;;2.50;;
6288;SDS011;3177;49.880;8.836;2023-04-03T07:33:50;3.87;;;2.73;;
6288;SDS011;3177;49.880;8.836;2023-04-03T07:36:18;4.63;;;2.77;;
6288;SDS011;3177;49.880;8.836;2023-04-03T07:38:45;3.60;;;2.40;;
6288;SDS011;3177;49.880;8.836;2023-04-03T07:41:13;2.40;;;2.10;;
6288;SDS011;3177;49.880;8.836;2023-04-03T07:43:42;3.47;;;2.73;;
6288;SDS011;3177;49.880;8.836;2023-04-03T07:46:10;4.57;;;2.30;;
6288;SDS011;3177;49.880;8.836;2023-04-03T07:48:37;3.20;;;2.30;;
6288;SDS011;3177;49.880;8.836;2023-04-03T07:51:06;4.80;;;2.20;;
6288;SDS011;3177;49.880;8.836;2023-04-03T07:53:33;2.43;;;2.10;;
6288;SDS011;3177;49.880;8.836;2023-04-03T07:56:00;2.77;;;2.33;;
6288;SDS011;3177;49.880;8.836;2023-04-03T07:58:28;2.13;;;2.00;;
6288;SDS011;3177;49.880;8.836;2023-04-03T08:00:55;2.70;;;2.10;;
6288;SDS011;3177;49.880;8.836;2023-04-03T08:03:22;2.43;;;2.10;;
6288;SDS011;3177;49.880;8.836;2023-04-03T08:05:50;2.30;;;2.10;;
6288;SDS011;3177;49.880;8.836;2023-04-03T08:08:20;3.63;;;2.20;;
6288;SDS011;3177;49.880;8.836;2023-04-03T08:10:48;3.10;;;2.30;;
6288;SDS011;3177;49.880;8.836;2023-04-03T08:13:16;2.30;;;2.10;;
6288;SDS011;3177;49.880;8.836;2023-04-03T08:15:43;4.87;;;2.13;;
6288;SDS011;3177;49.880;8.836;2023-04-03T08:18:10;3.73;;;1.90;;
6288;SDS011;3177;49.880;8.836;2023-04-03T08:20:37;3.47;;;2.23;;
6288;SDS011;3177;49.880;8.836;2023-04-03T08:23:05;4.33;;;1.90;;
6288;SDS011;3177;49.880;8.836;2023-04-03T08:25:34;2.90;;;1.97;;
6288;SDS011;3177;49.880;8.836;2023-04-03T08:28:04;2.77;;;2.00;;
6288;SDS011;3177;49.880;8.836;2023-04-03T08:30:31;3.67;;;2.13;;
6288;SDS011;3177;49.880;8.836;2023-04-03T08:33:00;2.67;;;2.20;;
6288;SDS011;3177;49.880;8.836;2023-04-03T08:35:27;3.07;;;2.00;;
6288;SDS011;3177;49.880;8.836;2023-04-03T08:37:54;3.10;;;2.10;;
6288;SDS011;3177;49.880;8.836;2023-04-03T08:40:21;2.93;;;1.90;;
6288;SDS011;3177;49.880;8.836;2023-04-03T08:42:53;3.20;;;2.20;;
6288;SDS011;3177;49.880;8.836;2023-04-03T08:48:12;5.30;;;2.33;;
6288;SDS011;3177;49.880;8.836;2023-04-03T08:50:50;3.70;;;1.93;;
6288;SDS011;3177;49.880;8.836;2023-04-03T08:53:29;3.37;;;2.20;;
6288;SDS011;3177;49.880;8.836;2023-04-03T08:55:57;2.10;;;1.90;;
6288;SDS011;3177;49.880;8.836;2023-04-03T08:58:26;5.00;;;2.27;;
6288;SDS011;3177;49.880;8.836;2023-04-03T09:00:56;4.37;;;2.13;;
6288;SDS011;3177;49.880;8.836;2023-04-03T09:03:24;2.90;;;1.77;;
6288;SDS011;3177;49.880;8.836;2023-04-03T09:06:00;1.80;;;1.70;;
6288;SDS011;3177;49.880;8.836;2023-04-03T09:08:29;1.80;;;1.70;;
6288;SDS011;3177;49.880;8.836;2023-04-03T09:11:04;1.70;;;1.60;;
6288;SDS011;3177;49.880;8.836;2023-04-03T09:13:35;2.27;;;2.00;;
6288;SDS011;3177;49.880;8.836;2023-04-03T09:16:10;3.97;;;1.97;;
6288;SDS011;3177;49.880;8.836;2023-04-03T09:18:43;3.53;;;1.63;;
6288;SDS011;3177;49.880;8.836;2023-04-03T09:21:13;1.70;;;1.60;;
6288;SDS011;3177;49.880;8.836;2023-04-03T09:23:44;1.77;;;1.60;;
6288;SDS011;3177;49.880;8.836;2023-04-03T09:26:19;1.90;;;1.60;;
6288;SDS011;3177;49.880;8.836;2023-04-03T09:28:49;1.60;;;1.50;;
6288;SDS011;3177;49.880;8.836;2023-04-03T09:31:19;3.27;;;1.80;;
6288;SDS011;3177;49.880;8.836;2023-04-03T09:33:47;5.53;;;1.77;;
6288;SDS011;3177;49.880;8.836;2023-04-03T09:39:02;2.90;;;1.97;;
6288;SDS011;3177;49.880;8.836;2023-04-03T09:41:30;2.63;;;1.90;;
6288;SDS011;3177;49.880;8.836;2023-04-03T09:43:59;2.93;;;2.00;;
6288;SDS011;3177;49.880;8.836;2023-04-03T09:46:30;3.17;;;2.07;;
6288;SDS011;3177;49.880;8.836;2023-04-03T09:49:01;2.87;;;1.60;;
6288;SDS011;3177;49.880;8.836;2023-04-03T09:51:28;4.27;;;2.67;;
6288;SDS011;3177;49.880;8.836;2023-04-03T09:53:56;3.83;;;2.20;;
6288;SDS011;3177;49.880;8.836;2023-04-03T09:56:24;2.80;;;1.80;;
6288;SDS011;3177;49.880;8.836;2023-04-03T09:58:53;3.27;;;1.83;;
6288;SDS011;3177;49.880;8.836;2023-04-03T10:01:34;3.30;;;1.80;;
6288;SDS011;3177;49.880;8.836;2023-04-03T10:04:03;2.50;;;1.57;;
6288;SDS011;3177;49.880;8.836;2023-04-03T10:06:31;3.37;;;1.90;;
6288;SDS011;3177;49.880;8.836;2023-04-03T10:09:00;2.83;;;1.50;;
6288;SDS011;3177;49.880;8.836;2023-04-03T10:11:29;4.17;;;1.73;;
6288;SDS011;3177;49.880;8.836;2023-04-03T10:13:57;3.30;;;1.80;;
6288;SDS011;3177;49.880;8.836;2023-04-03T10:16:26;3.87;;;1.67;;
6288;SDS011;3177;49.880;8.836;2023-04-03T10:19:01;1.77;;;1.50;;
6288;SDS011;3177;49.880;8.836;2023-04-03T10:21:32;3.30;;;1.90;;
6288;SDS011;3177;49.880;8.836;2023-04-03T10:24:05;3.60;;;1.90;;
6288;SDS011;3177;49.880;8.836;2023-04-03T10:26:35;3.60;;;1.90;;
6288;SDS011;3177;49.880;8.836;2023-04-03T10:29:06;1.70;;;1.60;;
6288;SDS011;3177;49.880;8.836;2023-04-03T10:31:39;2.67;;;1.77;;
6288;SDS011;3177;49.880;8.836;2023-04-03T10:34:11;3.40;;;1.53;;
6288;SDS011;3177;49.880;8.836;2023-04-03T10:36:42;3.17;;;1.70;;
6288;SDS011;3177;49.880;8.836;2023-04-03T10:39:18;2.30;;;2.10;;
6288;SDS011;3177;49.880;8.836;2023-04-03T10:41:59;2.77;;;1.97;;
6288;SDS011;3177;49.880;8.836;2023-04-03T10:44:30;1.93;;;1.60;;
6288;SDS011;3177;49.880;8.836;2023-04-03T10:47:00;1.83;;;1.73;;
6288;SDS011;3177;49.880;8.836;2023-04-03T10:49:33;3.30;;;1.90;;
6288;SDS011;3177;49.880;8.836;2023-04-03T10:52:09;2.90;;;1.97;;
6288;SDS011;3177;49.880;8.836;2023-04-03T10:54:38;1.80;;;1.70;;
6288;SDS011;3177;49.880;8.836;2023-04-03T10:57:08;2.87;;;1.80;;
6288;SDS011;3177;49.880;8.836;2023-04-03T10:59:36;3.77;;;1.87;;
6288;SDS011;3177;49.880;8.836;2023-04-03T11:02:05;2.60;;;1.77;;
6288;SDS011;3177;49.880;8.836;2023-04-03T11:04:35;3.73;;;2.10;;
6288;SDS011;3177;49.880;8.836;2023-04-03T11:07:04;3.60;;;1.90;;
6288;SDS011;3177;49.880;8.836;2023-04-03T11:09:37;1.93;;;1.80;;
6288;SDS011;3177;49.880;8.836;2023-04-03T11:12:11;2.40;;;1.70;;
6288;SDS011;3177;49.880;8.836;2023-04-03T11:14:39;4.20;;;1.90;;
6288;SDS011;3177;49.880;8.836;2023-04-03T11:17:11;2.00;;;1.80;;
6288;SDS011;3177;49.880;8.836;2023-04-03T11:19:42;4.07;;;1.60;;
6288;SDS011;3177;49.880;8.836;2023-04-03T11:22:14;2.13;;;1.60;;
6288;SDS011;3177;49.880;8.836;2023-04-03T11:24:43;1.60;;;1.50;;
6288;SDS011;3177;49.880;8.836;2023-04-03T11:27:15;1.10;;;1.10;;
6288;SDS011;3177;49.880;8.836;2023-04-03T11:29:47;2.67;;;1.60;;
6288;SDS011;3177;49.880;8.836;2023-04-03T11:35:12;3.67;;;1.50;;
6288;SDS011;3177;49.880;8.836;2023-04-03T11:37:40;2.20;;;1.60;;
6288;SDS011;3177;49.880;8.836;2023-04-03T11:40:18;2.83;;;1.35;;
6288;SDS011;3177;49.880;8.836;2023-04-03T11:42:47;1.60;;;1.50;;
6288;SDS011;3177;49.880;8.836;2023-04-03T11:45:16;2.92;;;1.52;;
6288;SDS011;3177;49.880;8.836;2023-04-03T11:47:44;2.70;;;1.60;;
6288;SDS011;3177;49.880;8.836;2023-04-03T11:52:57;1.25;;;1.25;;
6288;SDS011;3177;49.880;8.836;2023-04-03T11:58:14;2.47;;;1.50;;
6288;SDS011;3177;49.880;8.836;2023-04-03T12:00:55;1.30;;;1.20;;
6288;SDS011;3177;49.880;8.836;2023-04-03T12:03:29;2.42;;;1.55;;
6288;SDS011;3177;49.880;8.836;2023-04-03T12:05:57;3.55;;;1.42;;
6288;SDS011;3177;49.880;8.836;2023-04-03T12:08:45;2.17;;;1.42;;
6288;SDS011;3177;49.880;8.836;2023-04-03T12:11:14;1.73;;;1.40;;
6288;SDS011;3177;49.880;8.836;2023-04-03T12:14:00;2.20;;;1.55;;
6288;SDS011;3177;49.880;8.836;2023-04-03T12:16:29;1.83;;;1.33;;
6288;SDS011;3177;49.880;8.836;2023-04-03T12:18:58;1.73;;;1.35;;
6288;SDS011;3177;49.880;8.836;2023-04-03T12:24:27;2.70;;;1.95;;
6288;SDS011;3177;49.880;8.836;2023-04-03T12:27:02;1.30;;;1.17;;
6288;SDS011;3177;49.880;8.836;2023-04-03T12:29:32;2.42;;;1.35;;
6288;SDS011;3177;49.880;8.836;2023-04-03T12:32:04;1.40;;;1.30;;
6288;SDS011;3177;49.880;8.836;2023-04-03T12:34:45;1.42;;;1.33;;
6288;SDS011;3177;49.880;8.836;2023-04-03T12:37:19;1.75;;;1.20;;
6288;SDS011;3177;49.880;8.836;2023-04-03T12:39:51;3.25;;;1.60;;
6288;SDS011;3177;49.880;8.836;2023-04-03T12:42:23;1.85;;;1.17;;
6288;SDS011;3177;49.880;8.836;2023-04-03T12:44:55;2.72;;;1.40;;
6288;SDS011;3177;49.880;8.836;2023-04-03T12:47:27;1.67;;;1.33;;
6288;SDS011;3177;49.880;8.836;2023-04-03T12:49:54;2.75;;;1.55;;
6288;SDS011;3177;49.880;8.836;2023-04-03T12:52:28;2.67;;;1.35;;
6288;SDS011;3177;49.880;8.836;2023-04-03T12:54:58;1.52;;;1.30;;
6288;SDS011;3177;49.880;8.836;2023-04-03T12:57:27;3.63;;;1.60;;
6288;SDS011;3177;49.880;8.836;2023-04-03T12:59:54;1.70;;;1.42;;
6288;SDS011;3177;49.880;8.836;2023-04-03T13:02:25;2.65;;;1.42;;
6288;SDS011;3177;49.880;8.836;2023-04-03T13:04:53;2.30;;;1.40;;
6288;SDS011;3177;49.880;8.836;2023-04-03T13:07:23;1.35;;;1.20;;
6288;SDS011;3177;49.880;8.836;2023-04-03T13:09:57;1.35;;;1.00;;
6288;SDS011;3177;49.880;8.836;2023-04-03T13:12:25;1.65;;;1.30;;
6288;SDS011;3177;49.880;8.836;2023-04-03T13:14:53;2.53;;;1.10;;
6288;SDS011;3177;49.880;8.836;2023-04-03T13:17:23;1.40;;;1.30;;
6288;SDS011;3177;49.880;8.836;2023-04-03T13:19:50;1.60;;;1.27;;
6288;SDS011;3177;49.880;8.836;2023-04-03T13:22:25;4.00;;;1.20;;
6288;SDS011;3177;49.880;8.836;2023-04-03T13:24:53;2.13;;;1.10;;
6288;SDS011;3177;49.880;8.836;2023-04-03T13:27:23;2.28;;;1.40;;
6288;SDS011;3177;49.880;8.836;2023-04-03T13:29:50;1.38;;;1.27;;
6288;SDS011;3177;49.880;8.836;2023-04-03T13:32:19;2.53;;;1.50;;
6288;SDS011;3177;49.880;8.836;2023-04-03T13:34:47;3.13;;;1.38;;
6288;SDS011;3177;49.880;8.836;2023-04-03T13:37:21;3.05;;;1.73;;
6288;SDS011;3177;49.880;8.836;2023-04-03T13:39:56;2.03;;;1.38;;
6288;SDS011;3177;49.880;8.836;2023-04-03T13:42:26;2.38;;;1.33;;
6288;SDS011;3177;49.880;8.836;2023-04-03T13:45:11;1.55;;;1.45;;
6288;SDS011;3177;49.880;8.836;2023-04-03T13:47:43;1.67;;;1.38;;
6288;SDS011;3177;49.880;8.836;2023-04-03T13:50:15;2.00;;;1.48;;
6288;SDS011;3177;49.880;8.836;2023-04-03T13:52:43;1.20;;;1.20;;
6288;SDS011;3177;49.880;8.836;2023-04-03T13:55:18;0.90;;;0.90;;
6288;SDS011;3177;49.880;8.836;2023-04-03T13:57:50;1.40;;;1.23;;
6288;SDS011;3177;49.880;8.836;2023-04-03T14:00:36;2.10;;;1.20;;
6288;SDS011;3177;49.880;8.836;2023-04-03T14:03:11;1.40;;;1.20;;
6288;SDS011;3177;49.880;8.836;2023-04-03T14:05:39;1.55;;;1.20;;
6288;SDS011;3177;49.880;8.836;2023-04-03T14:08:06;1.67;;;1.23;;
6288;SDS011;3177;49.880;8.836;2023-04-03T14:10:35;1.52;;;1.23;;
6288;SDS011;3177;49.880;8.836;2023-04-03T14:13:03;2.42;;;1.20;;
6288;SDS011;3177;49.880;8.836;2023-04-03T14:15:31;4.93;;;1.30;;
6288;SDS011;3177;49.880;8.836;2023-04-03T14:17:58;1.20;;;1.10;;
6288;SDS011;3177;49.880;8.836;2023-04-03T14:20:26;1.30;;;1.02;;
6288;SDS011;3177;49.880;8.836;2023-04-03T14:22:53;2.60;;;1.30;;
6288;SDS011;3177;49.880;8.836;2023-04-03T14:25:21;0.98;;;0.93;;
6288;SDS011;3177;49.880;8.836;2023-04-03T14:27:49;1.58;;;1.48;;
6288;SDS011;3177;49.880;8.836;2023-04-03T14:30:19;1.63;;;1.30;;
6288;SDS011;3177;49.880;8.836;2023-04-03T14:32:47;1.58;;;1.40;;
6288;SDS011;3177;49.880;8.836;2023-04-03T14:35:15;1.98;;;1.33;;
6288;SDS011;3177;49.880;8.836;2023-04-03T14:37:42;3.63;;;1.33;;
6288;SDS011;3177;49.880;8.836;2023-04-03T14:40:11;1.63;;;1.45;;
6288;SDS011;3177;49.880;8.836;2023-04-03T14:42:39;1.77;;;1.67;;
6288;SDS011;3177;49.880;8.836;2023-04-03T14:45:07;2.03;;;1.40;;
6288;SDS011;3177;49.880;8.836;2023-04-03T14:47:39;2.15;;;1.30;;
6288;SDS011;3177;49.880;8.836;2023-04-03T14:50:07;2.33;;;1.40;;
6288;SDS011;3177;49.880;8.836;2023-04-03T14:52:35;1.75;;;1.48;;
6288;SDS011;3177;49.880;8.836;2023-04-03T14:55:03;1.45;;;1.20;;
6288;SDS011;3177;49.880;8.836;2023-04-03T14:57:31;1.23;;;1.02;;
6288;SDS011;3177;49.880;8.836;2023-04-03T14:59:59;1.45;;;1.25;;
6288;SDS011;3177;49.880;8.836;2023-04-03T15:02:28;2.63;;;1.40;;
6288;SDS011;3177;49.880;8.836;2023-04-03T15:04:57;1.83;;;1.50;;
6288;SDS011;3177;49.880;8.836;2023-04-03T15:07:25;2.00;;;1.40;;
6288;SDS011;3177;49.880;8.836;2023-04-03T15:09:52;3.50;;;1.50;;
6288;SDS011;3177;49.880;8.836;2023-04-03T15:12:21;2.80;;;1.50;;
6288;SDS011;3177;49.880;8.836;2023-04-03T15:14:48;1.63;;;1.50;;
6288;SDS011;3177;49.880;8.836;2023-04-03T15:17:15;2.90;;;1.70;;
6288;SDS011;3177;49.880;8.836;2023-04-03T15:19:43;3.63;;;1.58;;
6288;SDS011;3177;49.880;8.836;2023-04-03T15:22:14;2.80;;;2.10;;
6288;SDS011;3177;49.880;8.836;2023-04-03T15:24:42;3.05;;;1.85;;
6288;SDS011;3177;49.880;8.836;2023-04-03T15:27:09;2.58;;;1.95;;
6288;SDS011;3177;49.880;8.836;2023-04-03T15:29:37;2.15;;;1.60;;
6288;SDS011;3177;49.880;8.836;2023-04-03T15:32:04;2.65;;;1.50;;
6288;SDS011;3177;49.880;8.836;2023-04-03T15:34:31;1.83;;;1.50;;
6288;SDS011;3177;49.880;8.836;2023-04-03T15:36:58;1.85;;;1.50;;
6288;SDS011;3177;49.880;8.836;2023-04-03T15:39:27;2.97;;;1.67;;
6288;SDS011;3177;49.880;8.836;2023-04-03T15:41:54;2.80;;;1.48;;
6288;SDS011;3177;49.880;8.836;2023-04-03T15:44:24;2.65;;;1.90;;
6288;SDS011;3177;49.880;8.836;2023-04-03T15:46:51;3.13;;;1.58;;
6288;SDS011;3177;49.880;8.836;2023-04-03T15:49:18;3.10;;;1.70;;